Latest Weather Observations for Darwin Harbour

IDD60901

Issued at 10:01 am CST Monday 21 August 2017 (issued every 10 minutes, with the page automatically refreshed every 10 minutes)

About weather observations | Map of Darwin area stations | Latest observations for Darwin area | Other Formats
Station Details ID: 014072 Name: DARWIN NTC AWS Lat: -12.47 Lon: 130.85 Height: 0.0 m
Data from the previous 72 hours. | See also: Recent months for locations in Northern Territory
Date/Time
CST
Temp
°C
App
Temp
°C
Dew
Point
°C
Rel
Hum
%
Delta-T
°C
Wind Press
QNH
hPa
Press
MSL
hPa
Rain since
9am
mm
Dir  Spd
km/h
Gust
km/h
Spd
kts
Gust
kts
21/10:00am - - - - - ESE 6 9 3 5 1013.7 1013.6 -
21/09:30am - - - - - E 7 11 4 6 1013.7 1013.6 -
21/09:00am - - - - - ENE 7 11 4 6 1013.5 1013.4 -
21/08:30am - - - - - E 7 9 4 5 1013.3 1013.2 -
21/08:00am - - - - - ENE 9 13 5 7 1013.0 1012.9 -
21/07:30am - - - - - NE 4 7 2 4 1012.7 1012.6 -
21/07:00am - - - - - NE 6 7 3 4 1012.3 1012.2 -
21/06:30am - - - - - NNE 7 11 4 6 1012.0 1011.9 -
21/06:00am - - - - - NNE 4 7 2 4 1011.7 1011.6 -
21/05:30am - - - - - N 6 11 3 6 1011.5 1011.4 -
21/05:00am - - - - - N 7 11 4 6 1011.4 1011.3 -
21/04:30am - - - - - ENE 4 9 2 5 1011.6 1011.5 -
21/04:00am - - - - - ENE 6 13 3 7 1011.7 1011.6 -
21/03:30am - - - - - ENE 6 9 3 5 1011.7 1011.6 -
21/03:00am - - - - - ENE 9 15 5 8 1011.6 1011.5 -
21/02:30am - - - - - ENE 6 9 3 5 1011.6 1011.5 -
21/02:00am - - - - - NE 4 9 2 5 1011.7 1011.6 -
21/01:30am - - - - - ENE 4 7 2 4 1011.7 1011.6 -
21/01:00am - - - - - ENE 6 9 3 5 1011.8 1011.7 -
21/12:30am - - - - - ENE 6 9 3 5 1012.0 1011.9 -
21/12:00am - - - - - E 7 9 4 5 1012.0 1011.9 -
 
Date/Time
CST
Temp
°C
App
Temp
°C
Dew
Point
°C
Rel
Hum
%
Delta-T
°C
Wind Press
QNH
hPa
Press
MSL
hPa
Rain since
9am
mm
Dir  Spd
km/h
Gust
km/h
Spd
kts
Gust
kts
20/11:30pm - - - - - ESE 7 9 4 5 1011.8 1011.7 -
20/11:00pm - - - - - N 2 7 1 4 1011.7 1011.6 -
20/10:30pm - - - - - SE 4 7 2 4 1011.6 1011.5 -
20/10:00pm - - - - - ESE 4 7 2 4 1011.5 1011.4 -
20/09:30pm - - - - - ESE 2 4 1 2 1011.4 1011.3 -
20/09:00pm - - - - - S 2 4 1 2 1011.3 1011.2 -
20/08:30pm - - - - - SE 2 4 1 2 1011.1 1011.0 -
20/08:00pm - - - - - NE 4 9 2 5 1010.8 1010.7 -
20/07:30pm - - - - - NNE 4 13 2 7 1010.3 1010.2 -
20/07:00pm - - - - - NNE 9 20 5 11 1010.1 1010.0 -
20/06:30pm - - - - - NNE 7 19 4 10 1009.8 1009.7 -
20/06:00pm - - - - - NE 11 24 6 13 1009.4 1009.3 -
20/05:30pm - - - - - NNE 9 22 5 12 1009.2 1009.1 -
20/05:00pm - - - - - NNE 11 22 6 12 1009.2 1009.1 -
20/04:30pm - - - - - N 13 22 7 12 1009.3 1009.2 -
20/04:00pm - - - - - NNW 11 22 6 12 1009.6 1009.5 -
20/03:30pm - - - - - W 15 24 8 13 1010.0 1009.9 -
20/03:00pm - - - - - NNW 11 24 6 13 1010.3 1010.2 -
20/02:30pm - - - - - WNW 13 24 7 13 1010.7 1010.6 -
20/02:00pm - - - - - W 17 26 9 14 1011.2 1011.1 -
20/01:30pm - - - - - WNW 17 30 9 16 1011.9 1011.8 -
20/01:00pm - - - - - E 11 28 6 15 1012.1 1012.0 -
20/12:30pm - - - - - E 15 22 8 12 1012.6 1012.5 -
20/12:00pm - - - - - SE 17 26 9 14 1013.1 1013.0 -
20/11:30am - - - - - WSW 9 13 5 7 1013.7 1013.6 -
20/11:00am - - - - - W 2 7 1 4 1014.2 1014.1 -
20/10:30am - - - - - NW 4 7 2 4 1014.5 1014.4 -
20/10:00am - - - - - N 4 9 2 5 1014.6 1014.5 -
20/09:30am - - - - - ESE 7 11 4 6 1014.6 1014.5 -
20/09:00am - - - - - E 9 11 5 6 1014.5 1014.4 -
20/08:30am - - - - - ENE 4 9 2 5 1014.1 1014.0 -
20/08:00am - - - - - ENE 4 7 2 4 1013.7 1013.6 -
20/07:30am - - - - - ENE 2 6 1 3 1013.4 1013.3 -
20/07:00am - - - - - NE 4 7 2 4 1013.0 1012.9 -
20/06:30am - - - - - ENE 4 9 2 5 1012.7 1012.6 -
20/06:00am - - - - - ENE 4 6 2 3 1012.3 1012.2 -
20/05:30am - - - - - NE 2 6 1 3 1012.1 1012.0 -
20/05:00am - - - - - NE 4 9 2 5 1012.1 1012.0 -
20/04:30am - - - - - ENE 4 9 2 5 1012.1 1012.0 -
20/04:00am - - - - - NE 2 6 1 3 1012.1 1012.0 -
20/03:30am - - - - - ENE 2 6 1 3 1012.2 1012.1 -
20/03:00am - - - - - ENE 4 7 2 4 1012.3 1012.2 -
20/02:30am - - - - - ENE 2 6 1 3 1012.4 1012.3 -
20/02:00am - - - - - NE 2 2 1 1 1012.5 1012.4 -
20/01:30am - - - - - CALM 0 2 0 1 1012.7 1012.6 -
20/01:00am - - - - - CALM 0 0 0 0 1013.0 1012.9 -
20/12:30am - - - - - NE 2 4 1 2 1013.1 1013.0 -
20/12:00am - - - - - SSW 2 2 1 1 1013.2 1013.1 -
 
Date/Time
CST
Temp
°C
App
Temp
°C
Dew
Point
°C
Rel
Hum
%
Delta-T
°C
Wind Press
QNH
hPa
Press
MSL
hPa
Rain since
9am
mm
Dir  Spd
km/h
Gust
km/h
Spd
kts
Gust
kts
19/11:30pm - - - - - NW 4 6 2 3 1013.0 1012.9 -
19/11:00pm - - - - - W 6 9 3 5 1013.0 1012.9 -
19/10:30pm - - - - - SW 6 7 3 4 1013.0 1012.9 -
19/10:00pm - - - - - SSW 9 11 5 6 1012.8 1012.7 -
19/09:30pm - - - - - SW 11 13 6 7 1012.6 1012.5 -
19/09:00pm - - - - - WSW 7 13 4 7 1012.4 1012.3 -
19/08:30pm - - - - - WSW 11 15 6 8 1012.1 1012.0 -
19/08:00pm - - - - - W 11 15 6 8 1011.6 1011.5 -
19/07:30pm - - - - - W 11 15 6 8 1011.2 1011.1 -
19/07:00pm - - - - - W 11 15 6 8 1010.8 1010.7 -
19/06:30pm - - - - - WNW 15 20 8 11 1010.4 1010.3 -
19/06:00pm - - - - - WNW 15 20 8 11 1010.1 1010.0 -
19/05:30pm - - - - - NNW 7 13 4 7 1009.8 1009.7 -
19/05:00pm - - - - - N 11 26 6 14 1009.7 1009.6 -
19/04:30pm - - - - - N 15 24 8 13 1009.8 1009.7 -
19/04:00pm - - - - - NNW 15 28 8 15 1010.0 1009.9 -
19/03:30pm - - - - - NNW 19 30 10 16 1010.1 1010.0 -
19/03:00pm - - - - - NW 15 28 8 15 1010.4 1010.3 -
19/02:30pm - - - - - NW 15 28 8 15 1010.8 1010.7 -
19/02:00pm - - - - - NW 13 24 7 13 1011.3 1011.2 -
19/01:30pm - - - - - WNW 15 26 8 14 1011.7 1011.6 -
19/01:00pm - - - - - W 9 17 5 9 1012.5 1012.4 -
19/12:30pm - - - - - WSW 6 11 3 6 1013.2 1013.1 -
19/12:00pm - - - - - SW 2 6 1 3 1013.8 1013.7 -
19/11:30am - - - - - SSW 4 7 2 4 1014.3 1014.2 -
19/11:00am - - - - - SW 4 7 2 4 1014.7 1014.6 -
19/10:30am - - - - - SSE 4 6 2 3 1015.1 1015.0 -
19/10:00am - - - - - ESE 6 7 3 4 1015.1 1015.0 -
19/09:30am - - - - - SE 6 7 3 4 1014.7 1014.6 -
19/09:00am - - - - - ESE 6 9 3 5 1014.6 1014.5 -
19/08:30am - - - - - E 4 6 2 3 1014.2 1014.1 -
19/08:00am - - - - - E 2 4 1 2 1013.8 1013.7 -
19/07:30am - - - - - ENE 4 6 2 3 1013.6 1013.5 -
19/07:00am - - - - - ESE 7 9 4 5 1013.5 1013.4 -
19/06:30am - - - - - SE 9 11 5 6 1013.1 1013.0 -
19/06:00am - - - - - SE 7 9 4 5 1012.9 1012.8 -
19/05:30am - - - - - SSE 7 11 4 6 1012.6 1012.5 -
19/05:00am - - - - - SE 7 11 4 6 1012.5 1012.4 -
19/04:30am - - - - - SSE 7 9 4 5 1012.5 1012.4 -
19/04:00am - - - - - SSE 4 7 2 4 1012.5 1012.4 -
19/03:30am - - - - - ENE 4 6 2 3 1012.7 1012.6 -
19/03:00am - - - - - ENE 4 7 2 4 1012.8 1012.7 -
19/02:30am - - - - - ESE 9 11 5 6 1012.8 1012.7 -
19/02:00am - - - - - ESE 9 11 5 6 1013.0 1012.9 -
19/01:30am - - - - - ENE 4 7 2 4 1013.2 1013.1 -
19/01:00am - - - - - ENE 4 7 2 4 1013.3 1013.2 -
19/12:30am - - - - - ENE 4 6 2 3 1013.5 1013.4 -
19/12:00am - - - - - ENE 2 6 1 3 1013.6 1013.5 -
 
Date/Time
CST
Temp
°C
App
Temp
°C
Dew
Point
°C
Rel
Hum
%
Delta-T
°C
Wind Press
QNH
hPa
Press
MSL
hPa
Rain since
9am
mm
Dir  Spd
km/h
Gust
km/h
Spd
kts
Gust
kts
18/11:30pm - - - - - ENE 6 9 3 5 1013.4 1013.3 -
18/11:00pm - - - - - E 6 9 3 5 1013.4 1013.3 -
18/10:30pm - - - - - E 6 9 3 5 1013.2 1013.1 -
18/10:00pm - - - - - SE 4 6 2 3 1013.1 1013.0 -
18/09:30pm - - - - - SSE 4 6 2 3 1012.9 1012.8 -
18/09:00pm - - - - - E 4 7 2 4 1012.6 1012.5 -
18/08:30pm - - - - - ENE 4 7 2 4 1012.1 1012.0 -
18/08:00pm - - - - - NE 2 7 1 4 1011.4 1011.3 -
18/07:30pm - - - - - NE 7 19 4 10 1011.0 1010.9 -
18/07:00pm - - - - - NE 13 26 7 14 1010.4 1010.3 -
18/06:30pm - - - - - NE 13 24 7 13 1009.8 1009.7 -
18/06:00pm - - - - - NE 13 26 7 14 1009.5 1009.4 -
18/05:30pm - - - - - NE 11 24 6 13 1009.2 1009.1 -
18/05:00pm - - - - - NNE 13 26 7 14 1009.1 1009.0 -
18/04:30pm - - - - - N 17 28 9 15 1009.1 1009.0 -
18/04:00pm - - - - - NNW 15 28 8 15 1009.1 1009.0 -
18/03:30pm - - - - - NNW 15 28 8 15 1009.3 1009.2 -
18/03:00pm - - - - - NW 17 26 9 14 1009.6 1009.5 -
18/02:30pm - - - - - NW 11 20 6 11 1010.0 1009.9 -
18/02:00pm - - - - - WNW 17 24 9 13 1010.4 1010.3 -
18/01:30pm - - - - - WNW 11 15 6 8 1010.9 1010.8 -
18/01:00pm - - - - - W 4 11 2 6 1011.4 1011.3 -
18/12:30pm - - - - - S 7 11 4 6 1011.8 1011.7 -
18/12:00pm - - - - - SSE 9 13 5 7 1012.3 1012.2 -
18/11:30am - - - - - SSE 7 11 4 6 1013.0 1012.9 -
18/11:00am - - - - - SE 7 11 4 6 1013.4 1013.3 -
18/10:30am - - - - - E 15 17 8 9 1013.6 1013.5 -

Latest Capital City Observations: Canberra | Sydney | Melbourne | Brisbane | Adelaide | Perth | Hobart | Darwin

Other Formats:

Comma delimited format used in spreadsheet applications
http://www.bom.gov.au/fwo/IDD60901/IDD60901.95122.axf

JavaScript Object Notation format (JSON) in row-major order
http://www.bom.gov.au/fwo/IDD60901/IDD60901.95122.json